Time;durP1;ratioP1;P1;durP2;ratioP2;P2;SDS_P1;SDS_P2;PMS_P1;PMS_P2;Temp;Humidity;BMP_temperature;BMP_pressure;BME280_temperature;BME280_humidity;BME280_pressure;Samples;Min_cycle;Max_cycle;Signal;HPM_P1;HPM_P2
2021/07/08 00:01:56;;;;;;;1.00;1.00;;;;;;;;;;4991712;28;20234;-83
2021/07/08 00:04:24;;;;;;;1.15;1.10;;;;;;;;;;4991336;28;20207;-83
2021/07/08 00:06:52;;;;;;;0.90;0.90;;;;;;;;;;4991691;28;20188;-83
2021/07/08 00:09:20;;;;;;;1.67;1.17;;;;;;;;;;4991798;28;20195;-82
2021/07/08 00:11:47;;;;;;;1.95;1.42;;;;;;;;;;4991640;28;20231;-83
2021/07/08 00:14:15;;;;;;;1.85;1.30;;;;;;;;;;4991819;28;20207;-83
2021/07/08 00:16:42;;;;;;;1.10;1.10;;;;;;;;;;4991489;28;20215;-83
2021/07/08 00:19:10;;;;;;;0.90;0.90;;;;;;;;;;4991156;28;20192;-82
2021/07/08 00:21:39;;;;;;;1.20;1.10;;;;;;;;;;4991242;28;20224;-83
2021/07/08 00:24:09;;;;;;;0.77;0.73;;;;;;;;;;4991429;28;20235;-83
2021/07/08 00:26:36;;;;;;;1.02;1.02;;;;;;;;;;4991485;28;20214;-83
2021/07/08 00:29:04;;;;;;;0.70;0.70;;;;;;;;;;4991690;28;20185;-83
2021/07/08 00:31:32;;;;;;;1.85;0.88;;;;;;;;;;4991189;28;20227;-82
2021/07/08 00:34:01;;;;;;;1.30;1.20;;;;;;;;;;4991277;28;20194;-83
2021/07/08 00:36:29;;;;;;;0.80;0.80;;;;;;;;;;4991281;28;20208;-82
2021/07/08 00:38:57;;;;;;;0.88;0.88;;;;;;;;;;4990984;28;20213;-82
2021/07/08 00:41:26;;;;;;;1.52;1.25;;;;;;;;;;4991174;28;20229;-83
2021/07/08 00:43:54;;;;;;;1.65;0.93;;;;;;;;;;4990825;28;20192;-83
2021/07/08 00:46:22;;;;;;;1.13;0.90;;;;;;;;;;4991108;28;20283;-83
2021/07/08 00:48:49;;;;;;;1.65;1.25;;;;;;;;;;4991224;28;20215;-84
2021/07/08 00:51:17;;;;;;;0.90;0.90;;;;;;;;;;4991262;28;20223;-84
2021/07/08 00:53:45;;;;;;;1.90;1.67;;;;;;;;;;4991367;28;20200;-83
2021/07/08 00:56:13;;;;;;;1.00;1.00;;;;;;;;;;4990956;28;20211;-83
2021/07/08 00:58:47;;;;;;;1.13;1.05;;;;;;;;;;4991020;28;20188;-83
2021/07/08 01:01:15;;;;;;;1.65;1.20;;;;;;;;;;4990916;28;20280;-84
2021/07/08 01:03:43;;;;;;;1.30;1.20;;;;;;;;;;4991039;28;20180;-82
2021/07/08 01:06:10;;;;;;;0.80;0.80;;;;;;;;;;4990729;28;20199;-84
2021/07/08 01:08:37;;;;;;;0.88;0.88;;;;;;;;;;4990975;28;20880;-83
2021/07/08 01:11:05;;;;;;;0.70;0.70;;;;;;;;;;4990622;28;20714;-82
2021/07/08 01:13:32;;;;;;;1.52;1.10;;;;;;;;;;4990683;28;20208;-85
2021/07/08 01:16:01;;;;;;;1.50;1.40;;;;;;;;;;4991695;28;20210;-83
2021/07/08 01:18:28;;;;;;;1.30;1.20;;;;;;;;;;4990555;28;20218;-82
2021/07/08 01:21:00;;;;;;;1.30;1.20;;;;;;;;;;4990382;28;20230;-83
2021/07/08 01:23:27;;;;;;;1.30;1.20;;;;;;;;;;4990009;28;20229;-82
2021/07/08 01:25:55;;;;;;;1.17;1.17;;;;;;;;;;4990374;28;20204;-82
2021/07/08 01:28:22;;;;;;;1.40;1.30;;;;;;;;;;4990084;28;20206;-82
2021/07/08 01:30:50;;;;;;;1.10;1.10;;;;;;;;;;4989840;28;20204;-83
2021/07/08 01:33:17;;;;;;;1.20;1.10;;;;;;;;;;4990655;28;20196;-82
2021/07/08 01:35:44;;;;;;;1.42;1.30;;;;;;;;;;4990098;28;20657;-83
2021/07/08 01:38:13;;;;;;;1.63;1.52;;;;;;;;;;4990269;28;20227;-83
2021/07/08 01:40:41;;;;;;;0.80;0.80;;;;;;;;;;4990218;28;20196;-82
2021/07/08 01:43:08;;;;;;;1.00;0.90;;;;;;;;;;4990447;28;20207;-83
2021/07/08 01:45:36;;;;;;;0.80;0.80;;;;;;;;;;4990194;28;20561;-82
2021/07/08 01:48:04;;;;;;;0.90;0.90;;;;;;;;;;4990003;28;20204;-83
2021/07/08 01:50:31;;;;;;;1.20;1.10;;;;;;;;;;4990539;28;20211;-83
2021/07/08 01:52:59;;;;;;;1.25;1.15;;;;;;;;;;4989982;28;20231;-83
2021/07/08 01:55:27;;;;;;;2.40;1.25;;;;;;;;;;4992230;28;20199;-83
2021/07/08 01:57:56;;;;;;;1.17;1.17;;;;;;;;;;4993709;28;20220;-83
2021/07/08 02:00:26;;;;;;;1.20;1.20;;;;;;;;;;4993526;28;20188;-83
2021/07/08 02:02:55;;;;;;;1.05;1.05;;;;;;;;;;4993615;28;20230;-82
2021/07/08 02:05:23;;;;;;;0.98;0.98;;;;;;;;;;4993284;28;20204;-83
2021/07/08 02:07:50;;;;;;;0.93;0.93;;;;;;;;;;4993738;28;20188;-83
2021/07/08 02:10:20;;;;;;;1.23;1.13;;;;;;;;;;4993788;28;20190;-83
2021/07/08 02:12:50;;;;;;;1.00;1.00;;;;;;;;;;4993503;28;20231;-83
2021/07/08 02:15:17;;;;;;;0.88;0.88;;;;;;;;;;4992559;28;20192;-83
2021/07/08 02:17:45;;;;;;;0.80;0.80;;;;;;;;;;4992046;28;20208;-83
2021/07/08 02:20:14;;;;;;;0.88;0.88;;;;;;;;;;4993306;28;20233;-83
2021/07/08 02:22:42;;;;;;;1.27;1.17;;;;;;;;;;4992895;28;20231;-82
2021/07/08 02:25:12;;;;;;;1.40;1.38;;;;;;;;;;4993193;28;20210;-83
2021/07/08 02:27:39;;;;;;;1.70;1.42;;;;;;;;;;4992672;28;20642;-82
2021/07/08 02:30:12;;;;;;;1.17;1.10;;;;;;;;;;4992716;28;20193;-81
2021/07/08 02:32:40;;;;;;;1.73;1.45;;;;;;;;;;4993087;28;20228;-82
2021/07/08 02:35:09;;;;;;;1.95;1.85;;;;;;;;;;4993090;28;20196;-83
2021/07/08 02:37:38;;;;;;;1.30;1.30;;;;;;;;;;4993074;28;20598;-82
2021/07/08 02:40:09;;;;;;;1.42;1.33;;;;;;;;;;4993008;28;20261;-82
2021/07/08 02:42:38;;;;;;;2.58;1.88;;;;;;;;;;4992583;28;20220;-82
2021/07/08 02:45:09;;;;;;;4.05;1.80;;;;;;;;;;4992733;28;20188;-82
2021/07/08 02:47:36;;;;;;;1.50;1.40;;;;;;;;;;4992737;28;20184;-82
2021/07/08 02:50:07;;;;;;;1.60;1.50;;;;;;;;;;4992353;28;20208;-83
2021/07/08 02:52:34;;;;;;;3.40;3.10;;;;;;;;;;4992373;28;20724;-82
2021/07/08 02:55:02;;;;;;;2.97;2.15;;;;;;;;;;4992822;28;20218;-82
2021/07/08 02:57:29;;;;;;;1.42;1.35;;;;;;;;;;4992308;28;20208;-83
2021/07/08 02:59:56;;;;;;;1.30;1.20;;;;;;;;;;4993022;28;20208;-82
2021/07/08 03:02:25;;;;;;;1.50;1.40;;;;;;;;;;4992305;28;20228;-82
2021/07/08 03:04:53;;;;;;;1.40;1.30;;;;;;;;;;4992451;28;20208;-82
2021/07/08 03:07:20;;;;;;;1.08;1.08;;;;;;;;;;4991971;28;20191;-83
2021/07/08 03:09:47;;;;;;;1.65;1.48;;;;;;;;;;4992447;28;20653;-83
2021/07/08 03:12:15;;;;;;;1.15;1.05;;;;;;;;;;4992826;28;20224;-83
2021/07/08 03:14:43;;;;;;;1.75;1.20;;;;;;;;;;4992251;28;20189;-83
2021/07/08 03:17:10;;;;;;;2.17;1.17;;;;;;;;;;4991869;28;20210;-83
2021/07/08 03:19:39;;;;;;;1.00;1.00;;;;;;;;;;4992204;28;20192;-82
2021/07/08 03:22:07;;;;;;;1.60;1.50;;;;;;;;;;4991876;28;20235;-83
2021/07/08 03:24:34;;;;;;;0.90;0.90;;;;;;;;;;4991873;28;20200;-83
2021/07/08 03:27:02;;;;;;;0.80;0.80;;;;;;;;;;4992286;28;20188;-83
2021/07/08 03:29:29;;;;;;;1.05;0.98;;;;;;;;;;4992270;28;20180;-82
2021/07/08 03:31:57;;;;;;;0.77;0.70;;;;;;;;;;4991919;28;20220;-83
2021/07/08 03:34:24;;;;;;;0.80;0.80;;;;;;;;;;4992254;28;20195;-83
2021/07/08 03:36:53;;;;;;;0.65;0.63;;;;;;;;;;4992219;28;20214;-83
2021/07/08 03:39:20;;;;;;;1.42;0.95;;;;;;;;;;4991744;28;20686;-83
2021/07/08 03:41:48;;;;;;;1.20;1.20;;;;;;;;;;4991744;28;20227;-83
2021/07/08 03:44:15;;;;;;;1.10;1.00;;;;;;;;;;4991923;28;20191;-83
2021/07/08 03:46:43;;;;;;;1.65;1.55;;;;;;;;;;4991528;28;20211;-83
2021/07/08 03:49:10;;;;;;;2.00;1.90;;;;;;;;;;4991854;28;20191;-83
2021/07/08 03:51:38;;;;;;;1.10;1.10;;;;;;;;;;4992144;28;20698;-83
2021/07/08 03:54:07;;;;;;;1.75;1.20;;;;;;;;;;4991523;28;20184;-83
2021/07/08 03:56:34;;;;;;;0.90;0.90;;;;;;;;;;4991941;28;20184;-83
2021/07/08 03:59:01;;;;;;;1.00;1.00;;;;;;;;;;4991604;28;20219;-83
2021/07/08 04:01:29;;;;;;;0.90;0.90;;;;;;;;;;4991378;28;20227;-83
2021/07/08 04:03:56;;;;;;;1.13;1.13;;;;;;;;;;4992210;28;20203;-83
2021/07/08 04:06:23;;;;;;;1.33;1.23;;;;;;;;;;4991653;28;20188;-82
2021/07/08 04:08:51;;;;;;;1.30;1.20;;;;;;;;;;4991298;28;20188;-84
2021/07/08 04:11:20;;;;;;;1.35;1.27;;;;;;;;;;4991343;28;20234;-83
2021/07/08 04:13:47;;;;;;;1.00;1.00;;;;;;;;;;4991720;28;20207;-83
2021/07/08 04:16:15;;;;;;;1.30;1.20;;;;;;;;;;4991075;28;20249;-83
2021/07/08 04:18:42;;;;;;;1.23;1.23;;;;;;;;;;4990296;28;20566;-83
2021/07/08 04:21:10;;;;;;;1.48;1.38;;;;;;;;;;4991154;28;20224;-83
2021/07/08 04:23:37;;;;;;;1.30;1.20;;;;;;;;;;4991030;28;20709;-83
2021/07/08 04:26:05;;;;;;;0.90;0.90;;;;;;;;;;4991454;28;20191;-83
2021/07/08 04:28:34;;;;;;;1.70;1.10;;;;;;;;;;4991381;28;20658;-82
2021/07/08 04:31:01;;;;;;;1.02;1.02;;;;;;;;;;4991278;28;20224;-83
2021/07/08 04:33:29;;;;;;;1.05;1.02;;;;;;;;;;4991174;28;20203;-83
2021/07/08 04:35:56;;;;;;;1.73;1.30;;;;;;;;;;4991204;28;20192;-83
2021/07/08 04:38:24;;;;;;;1.63;1.52;;;;;;;;;;4990955;28;20694;-83
2021/07/08 04:40:51;;;;;;;1.40;1.30;;;;;;;;;;4991249;28;20206;-83
2021/07/08 04:43:19;;;;;;;1.40;1.33;;;;;;;;;;4991065;28;20196;-83
2021/07/08 04:45:51;;;;;;;1.77;1.42;;;;;;;;;;4990607;28;20282;-83
2021/07/08 04:48:18;;;;;;;1.98;1.55;;;;;;;;;;4990978;28;20188;-83
2021/07/08 04:50:46;;;;;;;1.08;1.08;;;;;;;;;;4990905;28;20212;-82
2021/07/08 04:53:16;;;;;;;1.25;1.15;;;;;;;;;;4994468;28;20199;-83
2021/07/08 04:55:45;;;;;;;1.13;1.02;;;;;;;;;;4991009;28;20192;-83
2021/07/08 04:58:13;;;;;;;1.30;1.20;;;;;;;;;;4990441;28;20198;-83
2021/07/08 05:00:40;;;;;;;1.30;1.20;;;;;;;;;;4990615;28;20192;-83
2021/07/08 05:03:10;;;;;;;1.52;1.42;;;;;;;;;;4990536;28;20658;-82
2021/07/08 05:05:38;;;;;;;1.77;1.67;;;;;;;;;;4990791;28;20184;-83
2021/07/08 05:08:06;;;;;;;1.48;1.38;;;;;;;;;;4990634;28;20665;-82
2021/07/08 05:10:34;;;;;;;1.20;1.15;;;;;;;;;;4990969;28;20199;-83
2021/07/08 05:13:01;;;;;;;2.58;1.58;;;;;;;;;;4991219;28;20184;-83
2021/07/08 05:15:29;;;;;;;1.67;1.58;;;;;;;;;;4991220;28;20203;-83
2021/07/08 05:17:56;;;;;;;1.50;1.40;;;;;;;;;;4991393;28;20707;-82
2021/07/08 05:20:27;;;;;;;1.60;1.50;;;;;;;;;;4990922;28;20226;-83
2021/07/08 05:22:59;;;;;;;1.30;1.30;;;;;;;;;;4991021;28;20275;-83
2021/07/08 05:25:26;;;;;;;1.10;1.10;;;;;;;;;;4990993;28;20192;-83
2021/07/08 05:27:54;;;;;;;1.73;1.13;;;;;;;;;;4990874;28;20673;-82
2021/07/08 05:30:22;;;;;;;1.40;1.27;;;;;;;;;;4991163;28;20188;-82
2021/07/08 05:32:50;;;;;;;1.80;1.70;;;;;;;;;;4990963;28;20227;-82
2021/07/08 05:35:17;;;;;;;2.13;2.00;;;;;;;;;;4991227;28;20276;-82
2021/07/08 05:37:48;;;;;;;2.15;2.00;;;;;;;;;;4991208;28;20208;-83
2021/07/08 05:40:17;;;;;;;1.90;1.80;;;;;;;;;;4991147;28;20208;-83
2021/07/08 05:42:44;;;;;;;2.03;1.92;;;;;;;;;;4991308;28;20219;-83
2021/07/08 05:45:12;;;;;;;2.13;1.98;;;;;;;;;;4990930;28;20192;-83
2021/07/08 05:47:40;;;;;;;1.85;1.60;;;;;;;;;;4990820;28;20569;-83
2021/07/08 05:50:10;;;;;;;1.40;1.30;;;;;;;;;;4990512;28;20184;-83
2021/07/08 05:52:38;;;;;;;1.80;1.33;;;;;;;;;;4990852;28;20220;-83
2021/07/08 05:55:07;;;;;;;1.50;1.40;;;;;;;;;;4990525;28;20188;-82
2021/07/08 05:57:36;;;;;;;1.30;1.20;;;;;;;;;;4990596;28;20200;-82
2021/07/08 06:00:07;;;;;;;2.58;1.23;;;;;;;;;;4990269;28;20609;-82
2021/07/08 06:02:37;;;;;;;1.73;1.33;;;;;;;;;;4990798;28;20235;-83
2021/07/08 06:05:06;;;;;;;1.50;1.40;;;;;;;;;;4990297;28;20569;-83
2021/07/08 06:07:33;;;;;;;1.30;1.20;;;;;;;;;;4990046;28;20207;-83
2021/07/08 06:10:00;;;;;;;1.35;1.30;;;;;;;;;;4990096;28;20196;-83
2021/07/08 06:12:29;;;;;;;1.35;1.25;;;;;;;;;;4990233;28;20228;-83
2021/07/08 06:14:57;;;;;;;1.15;1.15;;;;;;;;;;4990124;28;20200;-82
2021/07/08 06:17:24;;;;;;;1.30;1.20;;;;;;;;;;4990603;28;20234;-83
2021/07/08 06:19:52;;;;;;;1.38;1.27;;;;;;;;;;4989644;28;20230;-83
2021/07/08 06:22:20;;;;;;;2.05;1.85;;;;;;;;;;4990138;28;20232;-83
2021/07/08 06:24:47;;;;;;;1.80;1.70;;;;;;;;;;4990045;28;20579;-83
2021/07/08 06:27:15;;;;;;;1.83;1.55;;;;;;;;;;4990196;28;20208;-82
2021/07/08 06:29:44;;;;;;;1.60;1.50;;;;;;;;;;4989860;28;20677;-82
2021/07/08 06:32:14;;;;;;;1.60;1.50;;;;;;;;;;4989892;28;20226;-82
2021/07/08 06:34:42;;;;;;;1.60;1.50;;;;;;;;;;4989964;28;20196;-83
2021/07/08 06:37:09;;;;;;;1.63;1.52;;;;;;;;;;4989815;28;20200;-83
2021/07/08 06:39:37;;;;;;;1.17;1.08;;;;;;;;;;4989598;28;20224;-83
2021/07/08 06:42:05;;;;;;;1.80;1.70;;;;;;;;;;4992311;28;20234;-83
2021/07/08 06:44:32;;;;;;;2.05;1.85;;;;;;;;;;4992914;28;20199;-83
2021/07/08 06:47:02;;;;;;;2.65;2.03;;;;;;;;;;4993030;28;20219;-82
2021/07/08 06:49:30;;;;;;;1.70;1.60;;;;;;;;;;4992949;28;20195;-83
2021/07/08 06:51:58;;;;;;;1.60;1.38;;;;;;;;;;4992918;28;20231;-82
2021/07/08 06:54:25;;;;;;;1.38;1.27;;;;;;;;;;4992695;28;20206;-82
2021/07/08 06:56:53;;;;;;;2.10;1.90;;;;;;;;;;4992381;28;20214;-82
2021/07/08 06:59:20;;;;;;;2.30;2.10;;;;;;;;;;4992804;28;20192;-82
2021/07/08 07:01:48;;;;;;;1.70;1.60;;;;;;;;;;4992711;28;20236;-83
2021/07/08 07:04:17;;;;;;;2.65;1.88;;;;;;;;;;4992600;28;20192;-82
2021/07/08 07:06:44;;;;;;;1.83;1.50;;;;;;;;;;4992409;28;20658;-83
2021/07/08 07:09:12;;;;;;;1.88;1.77;;;;;;;;;;4993336;28;20207;-83
2021/07/08 07:11:39;;;;;;;2.17;1.70;;;;;;;;;;4993330;28;20226;-83
2021/07/08 07:14:07;;;;;;;2.50;2.10;;;;;;;;;;4992663;28;20196;-83
2021/07/08 07:16:34;;;;;;;2.30;1.80;;;;;;;;;;4992713;28;20533;-82
2021/07/08 07:19:02;;;;;;;2.03;1.83;;;;;;;;;;4992483;28;20188;-82
2021/07/08 07:21:31;;;;;;;2.00;1.85;;;;;;;;;;4992323;28;20231;-82
2021/07/08 07:23:59;;;;;;;2.17;1.88;;;;;;;;;;4991830;28;20223;-82
2021/07/08 07:26:27;;;;;;;2.50;1.88;;;;;;;;;;4992197;28;20192;-82
2021/07/08 07:28:54;;;;;;;2.13;1.80;;;;;;;;;;4992250;28;20196;-82
2021/07/08 07:31:22;;;;;;;1.77;1.67;;;;;;;;;;4992239;28;20423;-82
2021/07/08 07:33:49;;;;;;;1.90;1.80;;;;;;;;;;4992315;28;20195;-82
2021/07/08 07:36:16;;;;;;;1.90;1.70;;;;;;;;;;4992612;28;20540;-82
2021/07/08 07:38:46;;;;;;;1.98;1.60;;;;;;;;;;5004612;28;20213;-82
2021/07/08 07:41:14;;;;;;;2.08;1.73;;;;;;;;;;5010921;28;20288;-81
2021/07/08 07:43:41;;;;;;;1.75;1.63;;;;;;;;;;5011022;28;20681;-83
2021/07/08 07:46:09;;;;;;;2.25;1.65;;;;;;;;;;5011553;28;20206;-83
2021/07/08 07:48:37;;;;;;;3.13;2.88;;;;;;;;;;5011045;28;20282;-83
2021/07/08 07:51:04;;;;;;;2.30;2.10;;;;;;;;;;5011771;28;20222;-82
2021/07/08 07:53:32;;;;;;;2.17;1.98;;;;;;;;;;5010528;28;20281;-83
2021/07/08 07:56:01;;;;;;;3.38;2.00;;;;;;;;;;5012198;28;20207;-82
2021/07/08 07:58:30;;;;;;;1.63;1.52;;;;;;;;;;5011453;28;20203;-81
2021/07/08 08:00:59;;;;;;;2.20;2.00;;;;;;;;;;5011208;28;20612;-82
2021/07/08 08:03:27;;;;;;;2.28;2.10;;;;;;;;;;5012080;28;20270;-83
2021/07/08 08:08:27;;;;;;;1.90;1.70;;;;;;;;;;5011270;28;20681;-82
2021/07/08 08:08:42;;;;;;;2.20;2.00;;;;;;;;;;5011036;28;20227;-82
2021/07/08 08:11:11;;;;;;;5.75;2.83;;;;;;;;;;5011625;28;20276;-84
2021/07/08 08:13:39;;;;;;;2.25;1.98;;;;;;;;;;5011687;28;20573;-82
2021/07/08 08:16:07;;;;;;;1.55;1.45;;;;;;;;;;5011597;28;20619;-83
2021/07/08 08:18:36;;;;;;;2.30;2.10;;;;;;;;;;5011230;28;20191;-83
2021/07/08 08:21:04;;;;;;;2.35;1.75;;;;;;;;;;5011443;28;20231;-83
2021/07/08 08:23:32;;;;;;;4.40;2.33;;;;;;;;;;5082023;28;20721;-84
2021/07/08 08:26:00;;;;;;;3.28;2.47;;;;;;;;;;5114700;28;20210;-83
2021/07/08 08:28:29;;;;;;;2.45;1.58;;;;;;;;;;5114012;28;20218;-82
2021/07/08 08:30:57;;;;;;;2.22;1.95;;;;;;;;;;5114227;28;20215;-83
2021/07/08 08:33:24;;;;;;;2.90;1.73;;;;;;;;;;5114493;28;20194;-83
2021/07/08 08:35:52;;;;;;;2.03;1.90;;;;;;;;;;5114467;28;20640;-83
2021/07/08 08:38:19;;;;;;;1.60;1.50;;;;;;;;;;5114097;28;20195;-83
2021/07/08 08:40:49;;;;;;;1.20;1.13;;;;;;;;;;5113766;28;20207;-82
2021/07/08 08:43:17;;;;;;;1.58;1.48;;;;;;;;;;5113475;28;20196;-84
2021/07/08 08:45:49;;;;;;;1.52;1.42;;;;;;;;;;5114068;28;20200;-84
2021/07/08 08:48:16;;;;;;;1.92;1.73;;;;;;;;;;5113412;28;20231;-82
2021/07/08 08:50:46;;;;;;;1.63;1.50;;;;;;;;;;5112970;28;20197;-84
2021/07/08 08:53:16;;;;;;;1.77;1.35;;;;;;;;;;5113645;28;20199;-83
2021/07/08 08:55:44;;;;;;;1.80;1.60;;;;;;;;;;5114123;28;20719;-83
2021/07/08 08:58:15;;;;;;;1.48;1.38;;;;;;;;;;5113470;28;20665;-83
2021/07/08 09:00:52;;;;;;;1.40;1.30;;;;;;;;;;5099526;28;20184;-84
2021/07/08 09:03:25;;;;;;;1.15;1.15;;;;;;;;;;5095485;28;20182;-83
2021/07/08 09:06:00;;;;;;;1.27;1.10;;;;;;;;;;5098151;28;20192;-85
2021/07/08 09:08:29;;;;;;;2.13;1.40;;;;;;;;;;5101156;28;20212;-84
2021/07/08 09:11:14;;;;;;;2.95;2.40;;;;;;;;;;5093681;28;20177;-83
2021/07/08 09:13:51;;;;;;;1.58;1.48;;;;;;;;;;5108658;28;20200;-85
2021/07/08 09:16:22;;;;;;;2.05;1.70;;;;;;;;;;5102502;28;20184;-83
2021/07/08 09:19:08;;;;;;;2.42;2.17;;;;;;;;;;5112895;28;20196;-83
2021/07/08 09:21:40;;;;;;;1.75;1.65;;;;;;;;;;5112305;28;20219;-83
2021/07/08 09:24:15;;;;;;;1.00;1.00;;;;;;;;;;5099947;28;20217;-83
2021/07/08 09:26:50;;;;;;;1.50;1.40;;;;;;;;;;5112675;28;20187;-84
2021/07/08 09:29:20;;;;;;;1.70;1.60;;;;;;;;;;5102892;28;20187;-84
2021/07/08 09:31:56;;;;;;;1.48;1.35;;;;;;;;;;5092741;28;20216;-84
2021/07/08 09:34:29;;;;;;;1.33;1.33;;;;;;;;;;5103179;28;20192;-84
2021/07/08 09:37:07;;;;;;;1.58;1.23;;;;;;;;;;5103681;28;20231;-84
2021/07/08 09:39:37;;;;;;;1.85;1.45;;;;;;;;;;5112834;28;20218;-84
2021/07/08 09:42:05;;;;;;;1.30;1.20;;;;;;;;;;5110944;28;20602;-84
2021/07/08 09:44:34;;;;;;;1.15;1.05;;;;;;;;;;5103826;28;20181;-84
2021/07/08 09:47:03;;;;;;;1.52;1.45;;;;;;;;;;5110088;28;20198;-83
2021/07/08 09:49:31;;;;;;;1.15;1.05;;;;;;;;;;5092145;28;20204;-83
2021/07/08 09:51:59;;;;;;;2.88;1.85;;;;;;;;;;5104303;28;20220;-84
2021/07/08 09:54:50;;;;;;;1.80;1.63;;;;;;;;;;5097927;28;20199;-84
2021/07/08 09:57:41;;;;;;;1.70;1.60;;;;;;;;;;5105296;28;20248;-83
2021/07/08 10:00:34;;;;;;;1.60;1.45;;;;;;;;;;5097366;28;20219;-84
2021/07/08 10:03:04;;;;;;;1.58;1.48;;;;;;;;;;5092370;28;20307;-84
2021/07/08 10:05:36;;;;;;;2.25;1.52;;;;;;;;;;5100449;28;20188;-84
2021/07/08 10:08:07;;;;;;;2.30;1.70;;;;;;;;;;5098973;28;20196;-83
2021/07/08 10:10:34;;;;;;;2.15;1.38;;;;;;;;;;5092160;28;20189;-83
2021/07/08 10:13:02;;;;;;;2.20;1.40;;;;;;;;;;5098766;28;20212;-84
2021/07/08 10:15:33;;;;;;;1.10;1.00;;;;;;;;;;5092979;28;20181;-83
2021/07/08 10:18:04;;;;;;;1.15;1.05;;;;;;;;;;5105035;28;20192;-84
2021/07/08 10:20:32;;;;;;;1.40;1.05;;;;;;;;;;5103354;28;20215;-83
2021/07/08 10:23:00;;;;;;;1.10;1.10;;;;;;;;;;5122993;27;20223;-83
2021/07/08 10:25:27;;;;;;;0.98;0.93;;;;;;;;;;5116435;28;20180;-83
2021/07/08 10:27:57;;;;;;;1.40;1.30;;;;;;;;;;5105590;28;20266;-83
2021/07/08 10:30:25;;;;;;;1.27;1.25;;;;;;;;;;5116151;28;20183;-84
2021/07/08 10:32:57;;;;;;;1.15;1.08;;;;;;;;;;5115499;28;20208;-84
2021/07/08 10:35:44;;;;;;;1.15;0.90;;;;;;;;;;5116079;28;20640;-83
2021/07/08 10:38:40;;;;;;;0.93;0.93;;;;;;;;;;5112129;28;20196;-84
2021/07/08 10:41:57;;;;;;;2.03;1.48;;;;;;;;;;5059848;28;20590;-83
2021/07/08 10:44:50;;;;;;;1.17;1.17;;;;;;;;;;5033035;28;20206;-84
2021/07/08 10:47:41;;;;;;;1.50;1.40;;;;;;;;;;5095887;28;20296;-84
2021/07/08 10:50:38;;;;;;;1.00;1.00;;;;;;;;;;5115481;28;20698;-83
2021/07/08 10:53:19;;;;;;;1.00;1.00;;;;;;;;;;5108679;28;20724;-83
2021/07/08 10:55:49;;;;;;;1.13;0.98;;;;;;;;;;5131943;27;20191;-84
2021/07/08 10:58:43;;;;;;;1.02;1.02;;;;;;;;;;5124147;27;20196;-83
2021/07/08 11:01:41;;;;;;;1.10;1.10;;;;;;;;;;5110082;28;20254;-83
2021/07/08 11:04:10;;;;;;;1.77;1.08;;;;;;;;;;5115384;28;20287;-84
2021/07/08 11:06:41;;;;;;;1.92;1.42;;;;;;;;;;5099857;28;20192;-83
2021/07/08 11:09:21;;;;;;;0.95;0.90;;;;;;;;;;5096436;28;20832;-83
2021/07/08 11:12:07;;;;;;;1.48;1.38;;;;;;;;;;5096133;28;20231;-83
2021/07/08 11:14:36;;;;;;;1.02;0.98;;;;;;;;;;5101134;28;20195;-84
2021/07/08 11:17:20;;;;;;;1.00;1.00;;;;;;;;;;5096937;28;20196;-83
2021/07/08 11:19:50;;;;;;;0.80;0.80;;;;;;;;;;5109086;28;20200;-83
2021/07/08 11:22:38;;;;;;;0.80;0.80;;;;;;;;;;5113008;28;20689;-83
2021/07/08 11:25:09;;;;;;;0.80;0.80;;;;;;;;;;5095866;28;20555;-82
2021/07/08 11:27:44;;;;;;;0.70;0.70;;;;;;;;;;5100423;28;20207;-83
2021/07/08 11:30:31;;;;;;;0.98;0.90;;;;;;;;;;5104100;28;20198;-84
2021/07/08 11:33:05;;;;;;;0.90;0.90;;;;;;;;;;5111020;28;20220;-84
2021/07/08 11:35:36;;;;;;;0.80;0.80;;;;;;;;;;5095706;28;20189;-84
2021/07/08 11:38:11;;;;;;;0.85;0.85;;;;;;;;;;5098698;28;20642;-84
2021/07/08 11:40:44;;;;;;;1.20;1.10;;;;;;;;;;5094680;28;20188;-83
2021/07/08 11:43:20;;;;;;;0.80;0.80;;;;;;;;;;5094559;28;20208;-84
2021/07/08 11:45:49;;;;;;;1.52;0.82;;;;;;;;;;5111952;28;20233;-84
2021/07/08 11:48:30;;;;;;;1.02;0.90;;;;;;;;;;5114397;28;20184;-83
2021/07/08 11:50:59;;;;;;;2.47;1.30;;;;;;;;;;5115055;28;20195;-82
2021/07/08 11:53:27;;;;;;;1.00;1.00;;;;;;;;;;5115387;28;20571;-83
2021/07/08 11:55:58;;;;;;;0.90;0.90;;;;;;;;;;5114974;28;20184;-84
2021/07/08 11:58:28;;;;;;;1.58;1.48;;;;;;;;;;5103976;28;20197;-84
2021/07/08 12:00:57;;;;;;;2.20;1.13;;;;;;;;;;5094500;28;20590;-83
2021/07/08 12:03:29;;;;;;;1.20;1.20;;;;;;;;;;5094222;28;20621;-84
2021/07/08 12:06:03;;;;;;;1.00;1.00;;;;;;;;;;5094284;28;20590;-83
2021/07/08 12:08:34;;;;;;;1.30;1.20;;;;;;;;;;5108071;28;20271;-83
2021/07/08 12:11:13;;;;;;;1.33;1.23;;;;;;;;;;5114401;28;20223;-83
2021/07/08 12:13:53;;;;;;;0.80;0.80;;;;;;;;;;5111295;28;20194;-84
2021/07/08 12:16:30;;;;;;;0.70;0.70;;;;;;;;;;5112378;28;20181;-83
2021/07/08 12:18:58;;;;;;;1.10;1.10;;;;;;;;;;5114423;28;20196;-83
2021/07/08 12:21:29;;;;;;;0.88;0.88;;;;;;;;;;5114055;28;20226;-83
2021/07/08 12:24:06;;;;;;;1.45;1.30;;;;;;;;;;5114154;28;20634;-82
2021/07/08 12:26:38;;;;;;;0.70;0.70;;;;;;;;;;5114549;28;20237;-85
2021/07/08 12:29:30;;;;;;;0.95;0.95;;;;;;;;;;5110601;28;20200;-85
2021/07/08 12:32:02;;;;;;;0.90;0.90;;;;;;;;;;5078383;28;20314;-85
2021/07/08 12:34:42;;;;;;;1.05;1.05;;;;;;;;;;5094011;28;20185;-86
2021/07/08 12:37:16;;;;;;;1.10;1.00;;;;;;;;;;5097867;28;20649;-85
2021/07/08 12:39:46;;;;;;;1.38;1.20;;;;;;;;;;5107747;28;20682;-86
2021/07/08 12:42:23;;;;;;;1.35;1.25;;;;;;;;;;5093827;28;20227;-87
2021/07/08 12:44:52;;;;;;;1.25;1.20;;;;;;;;;;5102512;28;20203;-85
2021/07/08 12:47:21;;;;;;;0.80;0.80;;;;;;;;;;5114251;28;20187;-84
2021/07/08 12:49:50;;;;;;;1.35;1.25;;;;;;;;;;5113366;28;20527;-85
2021/07/08 12:52:18;;;;;;;1.17;1.08;;;;;;;;;;5112980;28;20226;-84
2021/07/08 12:54:46;;;;;;;0.95;0.95;;;;;;;;;;5113689;28;20180;-84
2021/07/08 12:57:16;;;;;;;1.70;1.30;;;;;;;;;;5112761;28;20184;-86
2021/07/08 12:59:55;;;;;;;0.80;0.80;;;;;;;;;;5112632;28;20206;-85
2021/07/08 13:02:24;;;;;;;1.48;1.30;;;;;;;;;;5113770;28;20226;-85
2021/07/08 13:05:08;;;;;;;1.42;1.33;;;;;;;;;;5113629;28;20208;-85
2021/07/08 13:07:37;;;;;;;1.20;1.15;;;;;;;;;;5114162;28;20179;-84
2021/07/08 13:10:08;;;;;;;1.20;1.20;;;;;;;;;;5093344;28;20192;-85
2021/07/08 13:12:41;;;;;;;1.73;1.17;;;;;;;;;;5092901;28;20220;-85
2021/07/08 13:15:25;;;;;;;1.08;1.05;;;;;;;;;;5092774;28;20191;-84
2021/07/08 13:18:43;;;;;;;1.33;1.23;;;;;;;;;;5093265;28;20556;-85
2021/07/08 13:21:22;;;;;;;0.75;0.75;;;;;;;;;;5092859;28;20706;-84
2021/07/08 13:23:52;;;;;;;1.30;1.20;;;;;;;;;;5098372;28;20263;-84
2021/07/08 13:26:22;;;;;;;0.98;0.98;;;;;;;;;;5114045;28;20188;-84
2021/07/08 13:28:52;;;;;;;1.17;1.08;;;;;;;;;;5113574;28;20526;-83
2021/07/08 13:31:23;;;;;;;1.40;1.30;;;;;;;;;;5112618;28;20587;-83
2021/07/08 13:33:54;;;;;;;1.10;1.02;;;;;;;;;;5113601;28;20240;-84
2021/07/08 13:36:24;;;;;;;0.90;0.90;;;;;;;;;;5113570;28;20195;-84
2021/07/08 13:38:59;;;;;;;0.80;0.80;;;;;;;;;;5113283;28;20176;-83
2021/07/08 13:41:29;;;;;;;0.90;0.90;;;;;;;;;;5112186;28;20222;-83
2021/07/08 13:44:01;;;;;;;0.70;0.70;;;;;;;;;;5092953;28;20620;-84
2021/07/08 13:46:43;;;;;;;0.80;0.80;;;;;;;;;;5093302;28;20181;-82
2021/07/08 13:49:13;;;;;;;0.88;0.88;;;;;;;;;;5093330;28;20208;-84
2021/07/08 13:51:47;;;;;;;0.88;0.88;;;;;;;;;;5095500;28;20254;-84
2021/07/08 13:54:15;;;;;;;1.30;1.20;;;;;;;;;;5097412;28;20263;-84
2021/07/08 13:56:43;;;;;;;1.00;1.00;;;;;;;;;;5112586;28;20183;-83
2021/07/08 13:59:13;;;;;;;0.80;0.80;;;;;;;;;;5097366;28;20199;-83
2021/07/08 14:01:42;;;;;;;1.00;1.00;;;;;;;;;;5112650;28;20720;-82
2021/07/08 14:04:09;;;;;;;1.30;1.20;;;;;;;;;;5117837;28;20223;-83
2021/07/08 14:06:37;;;;;;;0.60;0.60;;;;;;;;;;5117303;28;20176;-83
2021/07/08 14:09:06;;;;;;;0.80;0.80;;;;;;;;;;5117765;28;20200;-84
2021/07/08 14:11:34;;;;;;;0.90;0.90;;;;;;;;;;5118142;28;20216;-83
2021/07/08 14:14:04;;;;;;;0.98;0.98;;;;;;;;;;5117577;28;20183;-83
2021/07/08 14:16:33;;;;;;;1.45;1.17;;;;;;;;;;5117819;28;20184;-82
2021/07/08 14:19:02;;;;;;;1.05;1.00;;;;;;;;;;5117996;28;20661;-82
2021/07/08 14:21:30;;;;;;;1.40;1.20;;;;;;;;;;5117519;28;20219;-83
2021/07/08 14:23:58;;;;;;;1.10;1.00;;;;;;;;;;5117203;28;20235;-83
2021/07/08 14:26:28;;;;;;;0.90;0.90;;;;;;;;;;5117083;28;20196;-83
2021/07/08 14:28:55;;;;;;;0.80;0.80;;;;;;;;;;5111930;28;20188;-83
2021/07/08 14:31:24;;;;;;;1.95;0.80;;;;;;;;;;5116223;28;20231;-82
2021/07/08 14:33:54;;;;;;;0.95;0.93;;;;;;;;;;5117080;28;20549;-83
2021/07/08 14:36:24;;;;;;;0.93;0.93;;;;;;;;;;5117218;28;20183;-82
2021/07/08 14:38:53;;;;;;;1.38;1.27;;;;;;;;;;5116617;28;20188;-82
2021/07/08 14:41:21;;;;;;;2.20;1.20;;;;;;;;;;5117123;28;20231;-84
2021/07/08 14:43:57;;;;;;;1.23;1.23;;;;;;;;;;5116655;28;20207;-82
2021/07/08 14:46:27;;;;;;;1.55;1.20;;;;;;;;;;5116506;28;20187;-82
2021/07/08 14:48:58;;;;;;;0.80;0.80;;;;;;;;;;5115718;28;20190;-83
2021/07/08 14:51:29;;;;;;;0.93;0.93;;;;;;;;;;5099679;28;20612;-82
2021/07/08 14:53:59;;;;;;;1.13;0.90;;;;;;;;;;5095445;28;20188;-83
2021/07/08 14:56:29;;;;;;;1.05;1.00;;;;;;;;;;5095696;28;20198;-82
2021/07/08 14:58:57;;;;;;;0.85;0.85;;;;;;;;;;5113203;28;20302;-82
2021/07/08 15:01:25;;;;;;;1.30;1.20;;;;;;;;;;5116538;28;20223;-83
2021/07/08 15:03:53;;;;;;;0.88;0.88;;;;;;;;;;5102828;28;20222;-82